sensor_id;sensor_type;location;lat;lon;timestamp;temperature;humidity
2212;DHT22;48849;48.758;9.158;2023-05-10T00:01:57;17.50;99.90
2212;DHT22;48849;48.758;9.158;2023-05-10T00:04:25;17.60;99.90
2212;DHT22;48849;48.758;9.158;2023-05-10T00:06:52;18.00;99.90
2212;DHT22;48849;48.758;9.158;2023-05-10T00:09:21;17.50;99.90
2212;DHT22;48849;48.758;9.158;2023-05-10T00:11:49;17.50;99.90
2212;DHT22;48849;48.758;9.158;2023-05-10T00:14:20;17.10;99.90
2212;DHT22;48849;48.758;9.158;2023-05-10T00:16:55;17.50;99.90
2212;DHT22;48849;48.758;9.158;2023-05-10T00:19:29;17.60;99.90
2212;DHT22;48849;48.758;9.158;2023-05-10T00:21:56;17.20;99.90
2212;DHT22;48849;48.758;9.158;2023-05-10T00:24:25;17.40;99.90
2212;DHT22;48849;48.758;9.158;2023-05-10T00:26:53;17.40;99.90
2212;DHT22;48849;48.758;9.158;2023-05-10T00:29:23;18.00;99.90
2212;DHT22;48849;48.758;9.158;2023-05-10T00:31:49;17.30;99.90
2212;DHT22;48849;48.758;9.158;2023-05-10T00:34:16;17.40;99.90
2212;DHT22;48849;48.758;9.158;2023-05-10T00:36:44;17.40;99.90
2212;DHT22;48849;48.758;9.158;2023-05-10T00:39:16;17.80;99.90
2212;DHT22;48849;48.758;9.158;2023-05-10T00:41:44;17.30;99.90
2212;DHT22;48849;48.758;9.158;2023-05-10T00:44:13;17.30;99.90
2212;DHT22;48849;48.758;9.158;2023-05-10T00:46:41;17.20;99.90
2212;DHT22;48849;48.758;9.158;2023-05-10T00:49:10;17.00;99.90
2212;DHT22;48849;48.758;9.158;2023-05-10T00:51:43;18.40;99.90
2212;DHT22;48849;48.758;9.158;2023-05-10T00:54:15;17.60;99.90
2212;DHT22;48849;48.758;9.158;2023-05-10T00:56:52;17.10;99.90
2212;DHT22;48849;48.758;9.158;2023-05-10T00:59:19;17.10;99.90
2212;DHT22;48849;48.758;9.158;2023-05-10T01:01:46;17.70;99.90
2212;DHT22;48849;48.758;9.158;2023-05-10T01:04:14;17.10;99.90
2212;DHT22;48849;48.758;9.158;2023-05-10T01:06:45;17.10;99.90
2212;DHT22;48849;48.758;9.158;2023-05-10T01:09:13;17.70;99.90
2212;DHT22;48849;48.758;9.158;2023-05-10T01:11:40;17.10;99.90
2212;DHT22;48849;48.758;9.158;2023-05-10T01:14:12;17.70;99.90
2212;DHT22;48849;48.758;9.158;2023-05-10T01:16:47;17.60;99.90
2212;DHT22;48849;48.758;9.158;2023-05-10T01:19:18;17.20;99.90
2212;DHT22;48849;48.758;9.158;2023-05-10T01:21:54;16.80;99.90
2212;DHT22;48849;48.758;9.158;2023-05-10T01:33:54;16.80;99.90
2212;DHT22;48849;48.758;9.158;2023-05-10T01:36:26;16.60;99.90
2212;DHT22;48849;48.758;9.158;2023-05-10T01:39:05;17.10;99.90
2212;DHT22;48849;48.758;9.158;2023-05-10T01:41:52;16.60;99.90
2212;DHT22;48849;48.758;9.158;2023-05-10T01:44:28;16.60;99.90
2212;DHT22;48849;48.758;9.158;2023-05-10T01:47:04;17.00;99.90
2212;DHT22;48849;48.758;9.158;2023-05-10T01:49:39;16.70;99.90
2212;DHT22;48849;48.758;9.158;2023-05-10T01:52:14;16.70;99.90
2212;DHT22;48849;48.758;9.158;2023-05-10T01:54:49;16.70;99.90
2212;DHT22;48849;48.758;9.158;2023-05-10T01:57:19;16.50;99.90
2212;DHT22;48849;48.758;9.158;2023-05-10T02:46:40;16.80;99.90
2212;DHT22;48849;48.758;9.158;2023-05-10T03:00:56;16.30;99.90
2212;DHT22;48849;48.758;9.158;2023-05-10T03:03:23;16.40;99.90
2212;DHT22;48849;48.758;9.158;2023-05-10T03:08:39;16.40;99.90
2212;DHT22;48849;48.758;9.158;2023-05-10T03:45:37;15.90;99.90
2212;DHT22;48849;48.758;9.158;2023-05-10T04:02:46;16.30;99.90
2212;DHT22;48849;48.758;9.158;2023-05-10T05:46:24;16.30;99.90
2212;DHT22;48849;48.758;9.158;2023-05-10T05:48:51;16.40;99.90
2212;DHT22;48849;48.758;9.158;2023-05-10T05:51:18;16.40;99.90
2212;DHT22;48849;48.758;9.158;2023-05-10T05:53:45;16.40;99.90
2212;DHT22;48849;48.758;9.158;2023-05-10T05:59:13;16.40;99.90
2212;DHT22;48849;48.758;9.158;2023-05-10T06:01:44;16.40;99.90
2212;DHT22;48849;48.758;9.158;2023-05-10T06:04:33;16.50;99.90
2212;DHT22;48849;48.758;9.158;2023-05-10T06:15:50;16.50;99.90
2212;DHT22;48849;48.758;9.158;2023-05-10T06:18:19;17.20;99.90
2212;DHT22;48849;48.758;9.158;2023-05-10T06:20:47;17.00;99.90
2212;DHT22;48849;48.758;9.158;2023-05-10T06:25:50;16.60;99.90
2212;DHT22;48849;48.758;9.158;2023-05-10T06:28:17;18.10;99.90
2212;DHT22;48849;48.758;9.158;2023-05-10T06:30:44;17.20;99.90
2212;DHT22;48849;48.758;9.158;2023-05-10T06:33:11;18.10;99.90
2212;DHT22;48849;48.758;9.158;2023-05-10T06:35:40;17.80;99.90
2212;DHT22;48849;48.758;9.158;2023-05-10T06:38:08;16.80;99.90
2212;DHT22;48849;48.758;9.158;2023-05-10T06:40:35;16.80;99.90
2212;DHT22;48849;48.758;9.158;2023-05-10T06:46:09;16.80;99.90
2212;DHT22;48849;48.758;9.158;2023-05-10T06:48:36;16.90;99.90
2212;DHT22;48849;48.758;9.158;2023-05-10T06:51:05;16.80;99.90
2212;DHT22;48849;48.758;9.158;2023-05-10T06:53:32;17.30;99.90
2212;DHT22;48849;48.758;9.158;2023-05-10T08:18:22;17.20;99.90
2212;DHT22;48849;48.758;9.158;2023-05-10T08:20:49;17.20;99.90
2212;DHT22;48849;48.758;9.158;2023-05-10T08:23:16;18.70;99.90
2212;DHT22;48849;48.758;9.158;2023-05-10T08:25:43;17.20;99.90
2212;DHT22;48849;48.758;9.158;2023-05-10T08:28:09;17.20;99.90
2212;DHT22;48849;48.758;9.158;2023-05-10T08:30:36;17.90;99.90
2212;DHT22;48849;48.758;9.158;2023-05-10T08:33:03;17.60;99.90
2212;DHT22;48849;48.758;9.158;2023-05-10T08:35:31;17.30;99.90
2212;DHT22;48849;48.758;9.158;2023-05-10T08:38:00;17.30;99.90
2212;DHT22;48849;48.758;9.158;2023-05-10T08:40:27;17.30;99.90
2212;DHT22;48849;48.758;9.158;2023-05-10T08:42:58;17.50;99.90
2212;DHT22;48849;48.758;9.158;2023-05-10T08:45:36;17.20;99.90
2212;DHT22;48849;48.758;9.158;2023-05-10T08:48:06;17.20;99.90
2212;DHT22;48849;48.758;9.158;2023-05-10T08:50:36;17.20;99.90
2212;DHT22;48849;48.758;9.158;2023-05-10T08:53:05;18.60;99.90
2212;DHT22;48849;48.758;9.158;2023-05-10T08:55:32;17.30;99.90
2212;DHT22;48849;48.758;9.158;2023-05-10T08:57:59;17.30;99.90
2212;DHT22;48849;48.758;9.158;2023-05-10T09:00:31;18.20;99.90
2212;DHT22;48849;48.758;9.158;2023-05-10T09:03:02;17.90;99.90
2212;DHT22;48849;48.758;9.158;2023-05-10T09:05:29;18.00;99.90
2212;DHT22;48849;48.758;9.158;2023-05-10T09:07:57;17.40;99.90
2212;DHT22;48849;48.758;9.158;2023-05-10T09:10:29;17.40;99.90
2212;DHT22;48849;48.758;9.158;2023-05-10T09:12:57;17.30;99.90
2212;DHT22;48849;48.758;9.158;2023-05-10T09:15:24;17.40;99.90
2212;DHT22;48849;48.758;9.158;2023-05-10T11:02:51;18.00;99.90
2212;DHT22;48849;48.758;9.158;2023-05-10T11:08:12;18.00;99.90
2212;DHT22;48849;48.758;9.158;2023-05-10T11:10:48;17.90;99.90
2212;DHT22;48849;48.758;9.158;2023-05-10T12:39:19;18.00;99.90
2212;DHT22;48849;48.758;9.158;2023-05-10T12:41:45;18.00;99.90
2212;DHT22;48849;48.758;9.158;2023-05-10T12:44:12;18.00;99.90
2212;DHT22;48849;48.758;9.158;2023-05-10T12:46:39;17.70;99.90
2212;DHT22;48849;48.758;9.158;2023-05-10T12:49:08;18.60;99.90
2212;DHT22;48849;48.758;9.158;2023-05-10T12:51:40;17.90;99.90
2212;DHT22;48849;48.758;9.158;2023-05-10T12:54:23;17.80;99.90
2212;DHT22;48849;48.758;9.158;2023-05-10T12:57:03;19.00;99.90
2212;DHT22;48849;48.758;9.158;2023-05-10T13:23:14;17.90;99.90
2212;DHT22;48849;48.758;9.158;2023-05-10T13:25:51;17.90;99.90
2212;DHT22;48849;48.758;9.158;2023-05-10T13:28:37;17.90;99.90
2212;DHT22;48849;48.758;9.158;2023-05-10T13:31:33;19.10;99.90
2212;DHT22;48849;48.758;9.158;2023-05-10T13:34:32;18.10;99.90
2212;DHT22;48849;48.758;9.158;2023-05-10T13:37:17;17.60;99.90
2212;DHT22;48849;48.758;9.158;2023-05-10T13:39:53;18.00;99.90
2212;DHT22;48849;48.758;9.158;2023-05-10T13:42:32;18.50;99.90
2212;DHT22;48849;48.758;9.158;2023-05-10T13:45:26;19.20;99.90
2212;DHT22;48849;48.758;9.158;2023-05-10T13:48:16;18.00;99.90
2212;DHT22;48849;48.758;9.158;2023-05-10T13:54:31;17.90;99.90
2212;DHT22;48849;48.758;9.158;2023-05-10T13:57:05;18.00;99.90
2212;DHT22;48849;48.758;9.158;2023-05-10T13:59:51;18.00;99.90
2212;DHT22;48849;48.758;9.158;2023-05-10T14:02:32;18.10;99.90
2212;DHT22;48849;48.758;9.158;2023-05-10T14:08:29;17.80;99.90
2212;DHT22;48849;48.758;9.158;2023-05-10T14:29:49;18.20;99.90
2212;DHT22;48849;48.758;9.158;2023-05-10T14:32:38;18.30;99.90
2212;DHT22;48849;48.758;9.158;2023-05-10T14:35:06;18.20;99.90
2212;DHT22;48849;48.758;9.158;2023-05-10T14:41:53;18.30;99.90
2212;DHT22;48849;48.758;9.158;2023-05-10T14:44:10;18.20;99.90
2212;DHT22;48849;48.758;9.158;2023-05-10T15:00:17;18.20;99.90
2212;DHT22;48849;48.758;9.158;2023-05-10T15:06:23;18.30;99.90
2212;DHT22;48849;48.758;9.158;2023-05-10T15:51:51;18.30;99.90
2212;DHT22;48849;48.758;9.158;2023-05-10T15:54:36;18.30;99.90
2212;DHT22;48849;48.758;9.158;2023-05-10T15:57:13;18.20;99.90
2212;DHT22;48849;48.758;9.158;2023-05-10T16:00:16;19.20;99.90
2212;DHT22;48849;48.758;9.158;2023-05-10T16:02:53;18.30;99.90
2212;DHT22;48849;48.758;9.158;2023-05-10T16:05:35;19.20;99.90
2212;DHT22;48849;48.758;9.158;2023-05-10T16:08:09;18.30;99.90
2212;DHT22;48849;48.758;9.158;2023-05-10T16:10:50;18.40;99.90
2212;DHT22;48849;48.758;9.158;2023-05-10T16:13:30;18.40;99.90
2212;DHT22;48849;48.758;9.158;2023-05-10T16:16:01;18.60;99.90
2212;DHT22;48849;48.758;9.158;2023-05-10T16:18:36;18.30;99.90
2212;DHT22;48849;48.758;9.158;2023-05-10T16:21:38;18.30;99.90
2212;DHT22;48849;48.758;9.158;2023-05-10T16:24:22;19.70;99.90
2212;DHT22;48849;48.758;9.158;2023-05-10T16:26:55;18.30;99.90
2212;DHT22;48849;48.758;9.158;2023-05-10T16:29:28;18.70;99.90
2212;DHT22;48849;48.758;9.158;2023-05-10T16:32:32;19.60;99.90
2212;DHT22;48849;48.758;9.158;2023-05-10T16:35:29;18.70;99.90
2212;DHT22;48849;48.758;9.158;2023-05-10T16:38:18;18.10;99.90
2212;DHT22;48849;48.758;9.158;2023-05-10T16:41:00;18.70;99.90
2212;DHT22;48849;48.758;9.158;2023-05-10T16:43:39;19.20;99.90
2212;DHT22;48849;48.758;9.158;2023-05-10T16:49:53;18.20;99.90
2212;DHT22;48849;48.758;9.158;2023-05-10T16:52:32;18.20;99.90
2212;DHT22;48849;48.758;9.158;2023-05-10T16:55:04;18.10;99.90
2212;DHT22;48849;48.758;9.158;2023-05-10T16:57:42;18.10;99.90
2212;DHT22;48849;48.758;9.158;2023-05-10T17:00:21;18.10;99.90
2212;DHT22;48849;48.758;9.158;2023-05-10T17:02:51;18.10;99.90
2212;DHT22;48849;48.758;9.158;2023-05-10T17:05:28;18.70;99.90
2212;DHT22;48849;48.758;9.158;2023-05-10T17:11:30;18.00;99.90
2212;DHT22;48849;48.758;9.158;2023-05-10T17:14:11;18.40;99.90
2212;DHT22;48849;48.758;9.158;2023-05-10T17:16:49;18.00;99.90
2212;DHT22;48849;48.758;9.158;2023-05-10T17:19:22;18.00;99.90
2212;DHT22;48849;48.758;9.158;2023-05-10T17:22:12;17.80;99.90
2212;DHT22;48849;48.758;9.158;2023-05-10T17:24:56;18.20;99.90
2212;DHT22;48849;48.758;9.158;2023-05-10T17:27:32;17.80;99.90
2212;DHT22;48849;48.758;9.158;2023-05-10T17:30:06;17.90;99.90
2212;DHT22;48849;48.758;9.158;2023-05-10T17:32:44;17.80;99.90
2212;DHT22;48849;48.758;9.158;2023-05-10T17:35:28;17.90;99.90
2212;DHT22;48849;48.758;9.158;2023-05-10T17:37:58;17.90;99.90
2212;DHT22;48849;48.758;9.158;2023-05-10T17:40:34;17.80;99.90
2212;DHT22;48849;48.758;9.158;2023-05-10T17:43:15;17.70;99.90
2212;DHT22;48849;48.758;9.158;2023-05-10T18:22:47;17.40;99.90
2212;DHT22;48849;48.758;9.158;2023-05-10T19:04:01;16.90;99.90
2212;DHT22;48849;48.758;9.158;2023-05-10T19:06:28;18.30;99.90
2212;DHT22;48849;48.758;9.158;2023-05-10T19:08:55;17.60;99.90
2212;DHT22;48849;48.758;9.158;2023-05-10T19:11:22;17.00;99.90
2212;DHT22;48849;48.758;9.158;2023-05-10T19:13:56;17.60;99.90
2212;DHT22;48849;48.758;9.158;2023-05-10T19:16:23;16.80;99.90
2212;DHT22;48849;48.758;9.158;2023-05-10T19:18:50;16.70;99.90
2212;DHT22;48849;48.758;9.158;2023-05-10T19:21:19;17.30;99.90
2212;DHT22;48849;48.758;9.158;2023-05-10T19:23:45;16.90;99.90
2212;DHT22;48849;48.758;9.158;2023-05-10T19:26:13;16.80;99.90
2212;DHT22;48849;48.758;9.158;2023-05-10T19:28:40;17.40;99.90
2212;DHT22;48849;48.758;9.158;2023-05-10T19:31:06;16.70;99.90
2212;DHT22;48849;48.758;9.158;2023-05-10T19:33:51;16.50;99.90
2212;DHT22;48849;48.758;9.158;2023-05-10T19:36:20;16.70;99.90
2212;DHT22;48849;48.758;9.158;2023-05-10T19:41:36;16.70;99.90
2212;DHT22;48849;48.758;9.158;2023-05-10T19:44:02;17.50;99.90
2212;DHT22;48849;48.758;9.158;2023-05-10T19:46:29;16.70;99.90
2212;DHT22;48849;48.758;9.158;2023-05-10T19:48:56;17.40;99.90
2212;DHT22;48849;48.758;9.158;2023-05-10T19:51:24;16.70;99.90
2212;DHT22;48849;48.758;9.158;2023-05-10T19:59:07;16.70;99.90
2212;DHT22;48849;48.758;9.158;2023-05-10T20:02:11;16.80;99.90
2212;DHT22;48849;48.758;9.158;2023-05-10T20:04:38;16.90;99.90
2212;DHT22;48849;48.758;9.158;2023-05-10T20:15:54;16.70;99.90
2212;DHT22;48849;48.758;9.158;2023-05-10T20:18:21;16.70;99.90
2212;DHT22;48849;48.758;9.158;2023-05-10T20:20:52;16.70;99.90
2212;DHT22;48849;48.758;9.158;2023-05-10T20:23:19;16.60;99.90
2212;DHT22;48849;48.758;9.158;2023-05-10T20:25:46;16.60;99.90
2212;DHT22;48849;48.758;9.158;2023-05-10T20:28:13;16.80;99.90
2212;DHT22;48849;48.758;9.158;2023-05-10T20:30:40;16.60;99.90
2212;DHT22;48849;48.758;9.158;2023-05-10T20:33:08;16.60;99.90
2212;DHT22;48849;48.758;9.158;2023-05-10T20:35:35;16.60;99.90
2212;DHT22;48849;48.758;9.158;2023-05-10T20:38:02;16.60;99.90
2212;DHT22;48849;48.758;9.158;2023-05-10T20:40:29;16.60;99.90
2212;DHT22;48849;48.758;9.158;2023-05-10T20:42:56;17.30;99.90
2212;DHT22;48849;48.758;9.158;2023-05-10T20:45:22;16.90;99.90
2212;DHT22;48849;48.758;9.158;2023-05-10T20:47:49;16.60;99.90
2212;DHT22;48849;48.758;9.158;2023-05-10T20:50:17;16.80;99.90
2212;DHT22;48849;48.758;9.158;2023-05-10T20:52:44;16.60;99.90
2212;DHT22;48849;48.758;9.158;2023-05-10T20:55:11;16.70;99.90
2212;DHT22;48849;48.758;9.158;2023-05-10T20:57:37;16.60;99.90
2212;DHT22;48849;48.758;9.158;2023-05-10T21:00:05;16.60;99.90
2212;DHT22;48849;48.758;9.158;2023-05-10T21:02:33;16.60;99.90
2212;DHT22;48849;48.758;9.158;2023-05-10T21:05:00;16.60;99.90
2212;DHT22;48849;48.758;9.158;2023-05-10T21:07:28;16.60;99.90
2212;DHT22;48849;48.758;9.158;2023-05-10T21:09:57;16.60;99.90
2212;DHT22;48849;48.758;9.158;2023-05-10T21:12:24;16.60;99.90
2212;DHT22;48849;48.758;9.158;2023-05-10T21:14:50;16.50;99.90
2212;DHT22;48849;48.758;9.158;2023-05-10T21:17:17;16.40;99.90
2212;DHT22;48849;48.758;9.158;2023-05-10T21:19:44;16.50;99.90
2212;DHT22;48849;48.758;9.158;2023-05-10T21:22:11;16.50;99.90
2212;DHT22;48849;48.758;9.158;2023-05-10T21:24:39;16.60;99.90
2212;DHT22;48849;48.758;9.158;2023-05-10T21:27:06;16.50;99.90
2212;DHT22;48849;48.758;9.158;2023-05-10T21:29:33;16.50;99.90
2212;DHT22;48849;48.758;9.158;2023-05-10T21:32:00;16.50;99.90
2212;DHT22;48849;48.758;9.158;2023-05-10T21:34:27;16.50;99.90
2212;DHT22;48849;48.758;9.158;2023-05-10T21:36:53;16.50;99.90
2212;DHT22;48849;48.758;9.158;2023-05-10T21:39:20;16.40;99.90
2212;DHT22;48849;48.758;9.158;2023-05-10T21:41:48;16.50;99.90
2212;DHT22;48849;48.758;9.158;2023-05-10T21:44:15;16.50;99.90
2212;DHT22;48849;48.758;9.158;2023-05-10T21:46:42;16.50;99.90
2212;DHT22;48849;48.758;9.158;2023-05-10T21:49:09;16.50;99.90
2212;DHT22;48849;48.758;9.158;2023-05-10T21:51:36;16.40;99.90
2212;DHT22;48849;48.758;9.158;2023-05-10T21:54:03;16.40;99.90
2212;DHT22;48849;48.758;9.158;2023-05-10T21:56:30;16.40;99.90
2212;DHT22;48849;48.758;9.158;2023-05-10T21:58:58;16.40;99.90
2212;DHT22;48849;48.758;9.158;2023-05-10T22:01:25;16.30;99.90
2212;DHT22;48849;48.758;9.158;2023-05-10T22:03:52;16.50;99.90
2212;DHT22;48849;48.758;9.158;2023-05-10T22:06:18;16.30;99.90
2212;DHT22;48849;48.758;9.158;2023-05-10T22:08:45;16.30;99.90
2212;DHT22;48849;48.758;9.158;2023-05-10T22:11:12;16.30;99.90
2212;DHT22;48849;48.758;9.158;2023-05-10T22:13:38;16.30;99.90
2212;DHT22;48849;48.758;9.158;2023-05-10T22:16:06;16.30;99.90
2212;DHT22;48849;48.758;9.158;2023-05-10T22:18:33;16.20;99.90
2212;DHT22;48849;48.758;9.158;2023-05-10T22:21:00;16.50;99.90
2212;DHT22;48849;48.758;9.158;2023-05-10T22:23:26;16.20;99.90
2212;DHT22;48849;48.758;9.158;2023-05-10T22:25:53;16.20;99.90
2212;DHT22;48849;48.758;9.158;2023-05-10T22:28:24;16.20;99.90
2212;DHT22;48849;48.758;9.158;2023-05-10T22:30:51;16.30;99.90
2212;DHT22;48849;48.758;9.158;2023-05-10T22:33:19;16.30;99.90
2212;DHT22;48849;48.758;9.158;2023-05-10T22:35:46;16.40;99.90
2212;DHT22;48849;48.758;9.158;2023-05-10T22:38:13;16.30;99.90
2212;DHT22;48849;48.758;9.158;2023-05-10T22:40:40;16.30;99.90
2212;DHT22;48849;48.758;9.158;2023-05-10T22:43:07;16.50;99.90
2212;DHT22;48849;48.758;9.158;2023-05-10T22:45:34;16.30;99.90
2212;DHT22;48849;48.758;9.158;2023-05-10T22:48:02;16.20;99.90
2212;DHT22;48849;48.758;9.158;2023-05-10T22:50:31;16.30;99.90
2212;DHT22;48849;48.758;9.158;2023-05-10T22:52:57;16.20;99.90
2212;DHT22;48849;48.758;9.158;2023-05-10T22:55:24;16.20;99.90
2212;DHT22;48849;48.758;9.158;2023-05-10T22:57:51;16.20;99.90
2212;DHT22;48849;48.758;9.158;2023-05-10T23:00:18;16.20;99.90
2212;DHT22;48849;48.758;9.158;2023-05-10T23:02:45;16.20;99.90
2212;DHT22;48849;48.758;9.158;2023-05-10T23:05:12;16.30;99.90
2212;DHT22;48849;48.758;9.158;2023-05-10T23:07:40;16.20;99.90
2212;DHT22;48849;48.758;9.158;2023-05-10T23:10:07;16.20;99.90
2212;DHT22;48849;48.758;9.158;2023-05-10T23:12:34;16.20;99.90
2212;DHT22;48849;48.758;9.158;2023-05-10T23:15:01;16.30;99.90
2212;DHT22;48849;48.758;9.158;2023-05-10T23:17:27;16.20;99.90
2212;DHT22;48849;48.758;9.158;2023-05-10T23:19:54;16.20;99.90
2212;DHT22;48849;48.758;9.158;2023-05-10T23:22:21;16.20;99.90
2212;DHT22;48849;48.758;9.158;2023-05-10T23:24:49;16.40;99.90
2212;DHT22;48849;48.758;9.158;2023-05-10T23:27:16;15.90;99.90
2212;DHT22;48849;48.758;9.158;2023-05-10T23:29:42;16.00;99.90
2212;DHT22;48849;48.758;9.158;2023-05-10T23:32:09;16.00;99.90
2212;DHT22;48849;48.758;9.158;2023-05-10T23:34:36;16.00;99.90
2212;DHT22;48849;48.758;9.158;2023-05-10T23:37:02;16.00;99.90
2212;DHT22;48849;48.758;9.158;2023-05-10T23:39:29;16.10;99.90
2212;DHT22;48849;48.758;9.158;2023-05-10T23:41:57;16.10;99.90
2212;DHT22;48849;48.758;9.158;2023-05-10T23:44:24;16.00;99.90
2212;DHT22;48849;48.758;9.158;2023-05-10T23:46:51;16.00;99.90
2212;DHT22;48849;48.758;9.158;2023-05-10T23:49:17;16.00;99.90
2212;DHT22;48849;48.758;9.158;2023-05-10T23:51:44;16.00;99.90
2212;DHT22;48849;48.758;9.158;2023-05-10T23:54:11;16.00;99.90
2212;DHT22;48849;48.758;9.158;2023-05-10T23:56:37;16.00;99.90
2212;DHT22;48849;48.758;9.158;2023-05-10T23:59:05;15.90;99.90
